Time;durP1;ratioP1;P1;durP2;ratioP2;P2;SDS_P1;SDS_P2;PMS_P1;PMS_P2;Temp;Humidity;BMP_temperature;BMP_pressure;BME280_temperature;BME280_humidity;BME280_pressure;Samples;Min_cycle;Max_cycle;Signal;HPM_P1;HPM_P2
2022/05/30 00:01:21;;;;;;;1.98;1.98;;;10.30;99.90;;;;;;6094713;29;20272;-67
2022/05/30 00:04:28;;;;;;;2.47;2.38;;;10.40;99.90;;;;;;6093803;29;20304;-67
2022/05/30 00:07:33;;;;;;;2.35;2.25;;;10.30;99.90;;;;;;6093221;29;20276;-67
2022/05/30 00:10:39;;;;;;;2.15;2.13;;;10.30;99.90;;;;;;6094346;29;20388;-68
2022/05/30 00:13:45;;;;;;;3.47;2.15;;;10.30;99.90;;;;;;6092277;29;20336;-67
2022/05/30 00:16:51;;;;;;;2.15;2.10;;;10.30;99.90;;;;;;6094385;29;20277;-67
2022/05/30 00:19:56;;;;;;;4.50;2.00;;;10.20;99.90;;;;;;6093525;29;20534;-67
2022/05/30 00:23:01;;;;;;;2.22;2.10;;;10.20;99.90;;;;;;6092919;29;20495;-67
2022/05/30 00:26:09;;;;;;;1.70;1.60;;;10.20;99.90;;;;;;6093676;29;20272;-68
2022/05/30 00:29:14;;;;;;;1.88;1.88;;;10.20;99.90;;;;;;6093204;29;20300;-68
2022/05/30 00:32:21;;;;;;;2.00;2.00;;;10.30;99.90;;;;;;6093905;29;20280;-68
2022/05/30 00:35:27;;;;;;;2.60;1.80;;;10.30;99.90;;;;;;6091773;29;20485;-68
2022/05/30 00:38:32;;;;;;;2.15;1.70;;;10.30;99.90;;;;;;6092997;29;20548;-69
2022/05/30 00:41:39;;;;;;;1.90;1.90;;;10.30;99.90;;;;;;6092149;29;20276;-68
2022/05/30 00:44:47;;;;;;;1.90;1.80;;;10.30;99.90;;;;;;6091217;29;20304;-67
2022/05/30 00:47:53;;;;;;;2.25;1.67;;;10.30;99.90;;;;;;6092948;29;20296;-67
2022/05/30 00:51:01;;;;;;;1.80;1.73;;;10.30;99.90;;;;;;6093424;29;20348;-68
2022/05/30 00:54:12;;;;;;;2.05;1.92;;;10.30;99.90;;;;;;6092645;29;20300;-67
2022/05/30 00:57:21;;;;;;;1.65;1.60;;;10.40;99.90;;;;;;6093208;29;20276;-68
2022/05/30 01:00:28;;;;;;;2.25;1.67;;;10.20;99.90;;;;;;6091038;29;20296;-68
2022/05/30 01:06:58;;;;;;;1.67;1.67;;;10.30;99.90;;;;;;6091137;29;20281;-67
2022/05/30 01:10:07;;;;;;;1.67;1.67;;;10.30;99.90;;;;;;6090687;29;20300;-68
2022/05/30 01:13:16;;;;;;;2.35;2.20;;;10.20;99.90;;;;;;6092035;29;20473;-68
2022/05/30 01:16:22;;;;;;;2.75;1.90;;;10.10;99.90;;;;;;6076531;29;20277;-68
2022/05/30 01:19:47;;;;;;;2.00;1.90;;;10.20;99.90;;;;;;6092069;29;20296;-68
2022/05/30 01:23:25;;;;;;;3.72;2.20;;;10.20;99.90;;;;;;6090585;29;20300;-67
2022/05/30 01:26:52;;;;;;;2.15;1.65;;;10.10;99.90;;;;;;6080041;29;20280;-68
2022/05/30 01:30:04;;;;;;;2.85;1.70;;;10.20;99.90;;;;;;6090262;29;20304;-67
2022/05/30 01:33:17;;;;;;;1.73;1.73;;;10.20;99.90;;;;;;6090632;29;20300;-68
2022/05/30 01:36:24;;;;;;;2.45;2.05;;;10.10;99.90;;;;;;6091205;29;20301;-68
2022/05/30 01:39:30;;;;;;;1.80;1.70;;;10.00;99.90;;;;;;6090742;29;20296;-67
2022/05/30 01:42:36;;;;;;;1.92;1.85;;;10.00;99.90;;;;;;6090429;29;20366;-70
2022/05/30 01:45:43;;;;;;;1.83;1.83;;;10.00;99.90;;;;;;6090694;29;20284;-69
2022/05/30 01:48:49;;;;;;;1.95;1.60;;;9.80;99.90;;;;;;6090010;29;20458;-66
2022/05/30 01:51:55;;;;;;;5.63;2.00;;;9.80;99.90;;;;;;6090843;29;20276;-67
2022/05/30 01:55:03;;;;;;;2.47;1.67;;;9.70;99.90;;;;;;6089576;29;20308;-66
2022/05/30 01:58:33;;;;;;;2.17;1.70;;;9.80;99.90;;;;;;6090536;29;20305;-67
2022/05/30 02:02:18;;;;;;;1.75;1.75;;;9.80;99.90;;;;;;6091622;29;20268;-67
2022/05/30 02:05:25;;;;;;;2.05;1.92;;;9.70;99.90;;;;;;6090457;29;20304;-67
2022/05/30 02:08:30;;;;;;;2.00;1.90;;;9.80;99.90;;;;;;6091711;29;20304;-68
2022/05/30 02:11:36;;;;;;;2.72;1.92;;;9.90;99.90;;;;;;6091081;29;20280;-69
2022/05/30 02:15:02;;;;;;;2.05;1.92;;;9.90;99.90;;;;;;6091469;29;20599;-68
2022/05/30 02:18:12;;;;;;;2.25;1.80;;;9.80;99.90;;;;;;6089901;29;20296;-68
2022/05/30 02:21:17;;;;;;;2.10;2.00;;;9.70;99.90;;;;;;6091705;29;20277;-67
2022/05/30 02:24:23;;;;;;;2.10;2.05;;;9.70;99.90;;;;;;6090326;29;20603;-68
2022/05/30 02:27:29;;;;;;;2.40;2.10;;;9.80;99.90;;;;;;6090312;29;20309;-67
2022/05/30 02:30:34;;;;;;;2.15;2.03;;;9.80;99.90;;;;;;6089970;29;20285;-67
2022/05/30 02:37:05;;;;;;;2.55;1.90;;;9.80;99.90;;;;;;6092048;29;20296;-67
2022/05/30 02:40:13;;;;;;;1.75;1.75;;;9.90;99.90;;;;;;6092041;29;20305;-69
2022/05/30 02:43:41;;;;;;;1.70;1.70;;;9.80;99.90;;;;;;6098658;29;20304;-69
2022/05/30 02:46:46;;;;;;;2.00;2.00;;;9.90;99.90;;;;;;6099863;29;20588;-67
2022/05/30 02:49:54;;;;;;;4.55;3.20;;;9.80;99.90;;;;;;6094904;29;20311;-66
2022/05/30 02:53:00;;;;;;;1.80;1.80;;;9.90;99.90;;;;;;6090543;29;20316;-68
2022/05/30 02:56:25;;;;;;;2.25;2.10;;;9.80;99.90;;;;;;6091104;29;20296;-67
2022/05/30 02:59:31;;;;;;;3.05;2.10;;;9.90;99.90;;;;;;6089157;29;20603;-68
2022/05/30 03:02:43;;;;;;;2.15;2.03;;;9.90;99.90;;;;;;6087833;29;20316;-68
2022/05/30 03:05:50;;;;;;;2.95;1.85;;;10.00;99.90;;;;;;6089814;29;20278;-68
2022/05/30 03:08:56;;;;;;;2.25;2.20;;;10.10;99.90;;;;;;6092837;29;20304;-67
2022/05/30 03:12:21;;;;;;;2.80;2.05;;;10.20;99.90;;;;;;6094241;29;20276;-68
2022/05/30 03:15:28;;;;;;;2.50;1.75;;;10.10;99.90;;;;;;6093034;29;20304;-68
2022/05/30 03:18:34;;;;;;;3.85;2.10;;;10.10;99.90;;;;;;6095067;29;20304;-68
2022/05/30 03:21:41;;;;;;;2.30;2.20;;;10.00;99.90;;;;;;6094291;29;20272;-68
2022/05/30 03:24:46;;;;;;;3.55;2.55;;;10.00;99.90;;;;;;6093591;29;20489;-67
2022/05/30 03:27:54;;;;;;;2.53;2.35;;;10.00;99.90;;;;;;6093467;29;20463;-68
2022/05/30 03:31:00;;;;;;;3.28;3.00;;;10.10;99.90;;;;;;6093694;29;20434;-68
2022/05/30 03:34:09;;;;;;;2.42;2.35;;;10.20;99.90;;;;;;6093002;29;20309;-70
2022/05/30 03:37:16;;;;;;;2.42;2.33;;;10.20;99.90;;;;;;6093093;29;20293;-68
2022/05/30 03:40:28;;;;;;;2.40;2.30;;;10.30;99.90;;;;;;6092530;29;20277;-67
2022/05/30 03:44:00;;;;;;;2.42;2.42;;;10.30;99.90;;;;;;6084481;29;20304;-67
2022/05/30 03:47:06;;;;;;;2.42;2.42;;;10.40;99.90;;;;;;6093801;29;20280;-67
2022/05/30 03:50:16;;;;;;;2.42;2.33;;;10.40;99.90;;;;;;6092841;29;20536;-66
2022/05/30 03:53:23;;;;;;;2.95;2.80;;;10.30;99.90;;;;;;6092631;29;20600;-67
2022/05/30 03:56:32;;;;;;;4.22;2.60;;;10.40;99.90;;;;;;6093421;29;20383;-68
2022/05/30 03:59:37;;;;;;;2.38;2.38;;;10.30;99.90;;;;;;6092617;29;20545;-68
2022/05/30 04:02:43;;;;;;;2.65;2.65;;;10.30;99.90;;;;;;6093965;29;20325;-67
2022/05/30 04:05:50;;;;;;;2.40;2.40;;;10.50;99.90;;;;;;6093090;29;20564;-68
2022/05/30 04:08:57;;;;;;;2.40;2.40;;;10.60;99.90;;;;;;6093006;29;20296;-69
2022/05/30 04:12:24;;;;;;;2.28;2.28;;;10.60;99.90;;;;;;6064477;29;20276;-66
2022/05/30 04:15:48;;;;;;;2.50;2.40;;;10.70;99.90;;;;;;6093841;29;20456;-68
2022/05/30 04:18:54;;;;;;;2.33;2.20;;;10.70;99.90;;;;;;6091318;29;20296;-68
2022/05/30 04:22:01;;;;;;;2.53;2.50;;;10.70;99.90;;;;;;6108192;29;20296;-68
2022/05/30 04:25:26;;;;;;;3.25;2.47;;;10.90;99.90;;;;;;6092623;29;20537;-67
2022/05/30 04:28:45;;;;;;;2.42;2.30;;;10.90;99.90;;;;;;6092287;29;20301;-68
2022/05/30 04:32:12;;;;;;;3.83;2.45;;;10.90;99.90;;;;;;6093998;29;20277;-68
2022/05/30 04:35:19;;;;;;;3.60;2.03;;;11.00;99.90;;;;;;6092034;29;20301;-68
2022/05/30 04:38:24;;;;;;;2.25;2.10;;;11.00;99.90;;;;;;6091594;29;20304;-69
2022/05/30 04:41:51;;;;;;;2.00;1.90;;;11.10;99.90;;;;;;6093724;29;20313;-69
2022/05/30 04:45:16;;;;;;;1.70;1.70;;;11.20;99.90;;;;;;6093143;29;20491;-69
2022/05/30 04:48:40;;;;;;;2.10;2.00;;;11.20;99.90;;;;;;6092857;29;20305;-68
2022/05/30 04:51:45;;;;;;;2.60;1.77;;;11.30;99.90;;;;;;6091897;29;20285;-69
2022/05/30 04:54:50;;;;;;;2.80;2.33;;;11.30;99.90;;;;;;6107275;29;20457;-69
2022/05/30 04:58:16;;;;;;;1.63;1.52;;;11.40;99.90;;;;;;6091015;29;20324;-68
2022/05/30 05:01:28;;;;;;;1.40;1.40;;;11.40;99.90;;;;;;6091854;29;20511;-68
2022/05/30 05:04:33;;;;;;;2.47;1.48;;;11.50;99.90;;;;;;6091139;29;20296;-68
2022/05/30 05:07:45;;;;;;;2.28;1.33;;;11.60;99.90;;;;;;6091813;29;20284;-68
2022/05/30 05:11:05;;;;;;;2.03;1.50;;;11.80;99.90;;;;;;6106916;29;20269;-67
2022/05/30 05:14:50;;;;;;;1.17;1.17;;;12.00;99.90;;;;;;6089526;29;20321;-68
2022/05/30 05:18:31;;;;;;;2.90;1.30;;;12.00;99.90;;;;;;6089696;29;20305;-68
2022/05/30 05:21:39;;;;;;;1.58;1.52;;;12.10;99.90;;;;;;6092639;29;20275;-68
2022/05/30 05:24:45;;;;;;;1.40;1.40;;;12.10;99.90;;;;;;6090982;29;20300;-69
2022/05/30 05:27:51;;;;;;;1.48;1.38;;;12.10;99.90;;;;;;6091854;29;20349;-68
2022/05/30 05:30:58;;;;;;;5.68;1.33;;;12.20;99.90;;;;;;6092184;29;20472;-68
2022/05/30 05:34:07;;;;;;;1.38;1.38;;;12.30;99.90;;;;;;6090478;29;20300;-68
2022/05/30 05:37:12;;;;;;;1.50;1.50;;;12.40;99.90;;;;;;6090743;29;20316;-68
2022/05/30 05:40:50;;;;;;;1.70;1.33;;;12.40;99.90;;;;;;6091219;29;20280;-68
2022/05/30 05:43:56;;;;;;;1.73;1.73;;;12.30;99.90;;;;;;6090757;29;20294;-69
2022/05/30 05:47:05;;;;;;;7.13;1.63;;;12.50;99.90;;;;;;6091094;29;20521;-69
2022/05/30 05:50:11;;;;;;;1.80;1.50;;;12.50;99.90;;;;;;6090525;29;20611;-68
2022/05/30 05:53:20;;;;;;;1.50;1.50;;;12.40;99.90;;;;;;6090462;29;20301;-69
2022/05/30 05:56:30;;;;;;;1.65;1.45;;;12.60;99.90;;;;;;6091074;29;20280;-68
2022/05/30 05:59:37;;;;;;;1.30;1.30;;;12.70;99.90;;;;;;6090127;29;20323;-69
2022/05/30 06:02:44;;;;;;;1.40;1.40;;;12.80;99.90;;;;;;6089623;29;20304;-68
2022/05/30 06:05:59;;;;;;;1.45;1.45;;;12.90;99.90;;;;;;6091119;29;20272;-69
2022/05/30 06:09:26;;;;;;;2.17;1.40;;;12.90;99.90;;;;;;6090474;29;20301;-69
2022/05/30 06:12:36;;;;;;;3.30;1.33;;;13.00;99.90;;;;;;6091694;29;20274;-68
2022/05/30 06:15:42;;;;;;;1.88;1.45;;;13.10;99.90;;;;;;6090743;29;20280;-68
2022/05/30 06:18:54;;;;;;;1.75;1.33;;;13.20;99.90;;;;;;6091685;29;20301;-68
2022/05/30 06:21:59;;;;;;;5.22;1.10;;;13.30;99.90;;;;;;6076588;29;20277;-68
2022/05/30 06:25:10;;;;;;;2.20;1.52;;;13.20;99.90;;;;;;6089632;29;20305;-69
2022/05/30 06:28:40;;;;;;;1.23;1.23;;;13.10;99.90;;;;;;6089619;29;20315;-68
2022/05/30 06:31:50;;;;;;;1.52;1.35;;;13.10;99.90;;;;;;6091421;29;20273;-68
2022/05/30 06:34:58;;;;;;;1.30;1.30;;;13.00;99.90;;;;;;6089703;29;20304;-68
2022/05/30 06:38:04;;;;;;;1.48;1.40;;;13.20;99.90;;;;;;6089723;29;20308;-68
2022/05/30 06:41:12;;;;;;;1.95;1.55;;;13.20;99.90;;;;;;6090401;29;20552;-68
2022/05/30 06:44:18;;;;;;;1.30;1.30;;;13.30;99.90;;;;;;6094703;29;20304;-69
2022/05/30 06:47:29;;;;;;;2.50;1.42;;;13.20;99.90;;;;;;6096142;29;20280;-70
2022/05/30 06:51:04;;;;;;;1.48;1.38;;;13.30;99.90;;;;;;6081411;29;20480;-68
2022/05/30 06:54:13;;;;;;;1.60;1.50;;;13.30;99.90;;;;;;6094406;29;20614;-68
2022/05/30 07:00:46;;;;;;;1.65;1.65;;;13.40;99.90;;;;;;6094025;29;20280;-68
2022/05/30 07:04:13;;;;;;;1.40;1.40;;;13.40;99.90;;;;;;6096040;29;20296;-68
2022/05/30 07:07:45;;;;;;;1.67;1.58;;;13.40;99.90;;;;;;6066471;29;20559;-69
2022/05/30 07:11:06;;;;;;;1.70;1.70;;;13.40;99.90;;;;;;6094711;29;20355;-68
2022/05/30 07:14:12;;;;;;;1.95;1.73;;;13.40;99.90;;;;;;6094392;29;20301;-68
2022/05/30 07:17:19;;;;;;;1.90;1.90;;;13.50;99.90;;;;;;6094646;29;20276;-69
2022/05/30 07:20:25;;;;;;;1.98;1.58;;;13.60;99.90;;;;;;6094273;29;20305;-69
2022/05/30 07:23:51;;;;;;;2.10;1.65;;;13.70;99.90;;;;;;6095003;29;20315;-70
2022/05/30 07:27:15;;;;;;;1.67;1.67;;;13.70;99.90;;;;;;6095762;29;20300;-69
2022/05/30 07:30:40;;;;;;;1.92;1.80;;;13.80;99.90;;;;;;6094862;29;20284;-70
2022/05/30 07:34:04;;;;;;;1.85;1.50;;;13.70;99.90;;;;;;6095083;29;20314;-68
2022/05/30 07:37:42;;;;;;;1.38;1.38;;;13.80;99.90;;;;;;6092848;29;20288;-68
2022/05/30 07:41:00;;;;;;;1.50;1.50;;;13.80;99.90;;;;;;6093730;29;20297;-68
2022/05/30 07:44:06;;;;;;;2.40;1.50;;;13.80;99.90;;;;;;6095314;29;20308;-69
2022/05/30 07:47:31;;;;;;;1.50;1.50;;;13.80;99.90;;;;;;6093489;29;20281;-68
2022/05/30 07:50:58;;;;;;;1.30;1.30;;;14.00;99.90;;;;;;6097475;29;20289;-66
2022/05/30 07:54:21;;;;;;;1.58;1.48;;;14.00;99.90;;;;;;6105218;29;20309;-67
2022/05/30 07:57:53;;;;;;;1.50;1.50;;;14.10;99.90;;;;;;6104347;29;20269;-65
2022/05/30 08:01:04;;;;;;;1.85;1.70;;;14.30;99.90;;;;;;6093457;29;20301;-68
2022/05/30 08:04:15;;;;;;;1.40;1.40;;;14.30;99.90;;;;;;6093101;29;20295;-68
2022/05/30 08:07:40;;;;;;;1.30;1.25;;;14.30;99.90;;;;;;6093158;29;20276;-69
2022/05/30 08:11:04;;;;;;;1.45;1.42;;;14.30;99.90;;;;;;6093792;29;20293;-69
2022/05/30 08:14:20;;;;;;;1.98;1.55;;;14.40;99.90;;;;;;6092482;29;20300;-67
2022/05/30 08:17:26;;;;;;;1.40;1.40;;;14.50;99.90;;;;;;6092916;29;20276;-67
2022/05/30 08:20:33;;;;;;;1.48;1.48;;;14.40;99.90;;;;;;6093089;29;20300;-68
2022/05/30 08:23:39;;;;;;;3.40;1.50;;;14.30;99.90;;;;;;6092257;29;20304;-68
2022/05/30 08:26:45;;;;;;;1.38;1.38;;;14.40;99.90;;;;;;6092486;29;20277;-68
2022/05/30 08:30:18;;;;;;;1.42;1.42;;;14.60;99.90;;;;;;6092399;29;20309;-69
2022/05/30 08:33:34;;;;;;;1.48;1.48;;;14.70;99.90;;;;;;6091804;29;20337;-69
2022/05/30 08:37:05;;;;;;;2.00;1.90;;;14.60;99.90;;;;;;6092475;29;20280;-69
2022/05/30 08:43:43;;;;;;;1.30;1.30;;;14.70;99.90;;;;;;6091635;29;20296;-68
2022/05/30 08:47:16;;;;;;;1.40;1.40;;;14.60;99.90;;;;;;6092218;29;20276;-68
2022/05/30 08:50:36;;;;;;;1.42;1.33;;;14.50;99.90;;;;;;6091320;29;20300;-69
2022/05/30 08:54:07;;;;;;;1.65;1.42;;;14.40;99.90;;;;;;6091259;29;20694;-68
2022/05/30 08:57:36;;;;;;;2.83;1.40;;;14.40;99.90;;;;;;6092232;29;20280;-68
2022/05/30 09:00:52;;;;;;;1.35;1.35;;;14.30;99.90;;;;;;6091284;29;20504;-68
2022/05/30 09:04:08;;;;;;;1.40;1.40;;;14.30;99.90;;;;;;6092608;29;20308;-68
2022/05/30 09:07:24;;;;;;;1.25;1.25;;;14.30;99.90;;;;;;6091391;29;20274;-68
2022/05/30 09:10:34;;;;;;;1.55;1.55;;;14.30;99.90;;;;;;6091706;29;20277;-68
2022/05/30 09:13:44;;;;;;;1.30;1.30;;;14.30;99.90;;;;;;6091357;29;20296;-68
2022/05/30 09:17:19;;;;;;;1.50;1.50;;;14.30;99.90;;;;;;6092887;29;20456;-68
2022/05/30 09:20:31;;;;;;;1.88;1.67;;;14.30;99.90;;;;;;6090718;29;20296;-68
2022/05/30 09:23:40;;;;;;;1.45;1.45;;;14.30;99.90;;;;;;6090992;29;20301;-69
2022/05/30 09:26:45;;;;;;;1.95;1.95;;;14.40;99.90;;;;;;6091458;29;20273;-68
2022/05/30 09:29:57;;;;;;;1.52;1.40;;;14.30;99.90;;;;;;6091116;29;20328;-68
2022/05/30 09:33:30;;;;;;;1.40;1.40;;;14.30;99.90;;;;;;6092252;29;20463;-69
2022/05/30 09:36:56;;;;;;;1.55;1.55;;;14.30;99.90;;;;;;6092601;29;20280;-68
2022/05/30 09:40:12;;;;;;;1.50;1.40;;;14.20;99.90;;;;;;6090793;29;20390;-69
2022/05/30 09:43:54;;;;;;;1.30;1.30;;;14.30;99.90;;;;;;6090770;29;20300;-71
2022/05/30 09:47:05;;;;;;;1.30;1.30;;;14.40;99.90;;;;;;6091230;29;20276;-70
2022/05/30 09:50:29;;;;;;;1.40;1.30;;;14.30;99.90;;;;;;6091721;29;20292;-68
2022/05/30 09:53:43;;;;;;;1.63;1.50;;;14.40;99.90;;;;;;6090745;29;20599;-68
2022/05/30 09:56:52;;;;;;;2.78;2.67;;;14.40;99.90;;;;;;6091072;29;20357;-69
2022/05/30 10:00:12;;;;;;;1.70;1.70;;;14.40;99.90;;;;;;6090543;29;20300;-69
2022/05/30 10:03:31;;;;;;;1.40;1.40;;;14.40;99.90;;;;;;6090716;29;20296;-69
2022/05/30 10:07:11;;;;;;;1.80;1.80;;;14.40;99.90;;;;;;6091596;29;20276;-69
2022/05/30 10:10:49;;;;;;;2.17;1.77;;;14.40;99.90;;;;;;6064594;29;20284;-69
2022/05/30 10:13:56;;;;;;;1.30;1.30;;;14.50;99.90;;;;;;6090570;29;20479;-68
2022/05/30 10:17:39;;;;;;;1.40;1.40;;;14.60;99.90;;;;;;6023869;29;20282;-68
2022/05/30 10:21:00;;;;;;;1.58;1.58;;;14.50;99.90;;;;;;6025487;29;20294;-69
2022/05/30 10:28:49;;;;;;;1.40;1.40;;;14.50;99.90;;;;;;6096471;29;20304;-69
2022/05/30 10:32:18;;;;;;;3.10;2.90;;;14.50;99.90;;;;;;6096184;29;20382;-68
2022/05/30 10:35:31;;;;;;;2.00;1.90;;;14.50;99.90;;;;;;6095062;29;20320;-68
2022/05/30 10:38:49;;;;;;;1.10;1.10;;;14.50;99.90;;;;;;6094902;29;20300;-68
2022/05/30 10:42:00;;;;;;;1.02;1.02;;;14.50;99.90;;;;;;6095465;29;20297;-69
2022/05/30 10:45:12;;;;;;;1.50;1.50;;;14.50;99.90;;;;;;6095043;29;20300;-68
2022/05/30 10:48:27;;;;;;;2.15;2.05;;;14.70;99.90;;;;;;6094711;29;20544;-69
2022/05/30 10:51:50;;;;;;;2.05;1.95;;;14.70;99.90;;;;;;6095174;29;20280;-68
2022/05/30 10:54:59;;;;;;;2.08;1.98;;;14.70;99.90;;;;;;6094569;29;20300;-68
2022/05/30 10:58:14;;;;;;;1.30;1.30;;;14.70;99.90;;;;;;6109767;29;20319;-68
2022/05/30 11:01:47;;;;;;;2.13;1.38;;;14.70;99.90;;;;;;6094709;29;20296;-68
2022/05/30 11:04:59;;;;;;;1.92;1.52;;;15.00;99.90;;;;;;6087117;29;20460;-68
2022/05/30 11:08:15;;;;;;;1.40;1.40;;;15.10;99.90;;;;;;6094435;29;20332;-67
2022/05/30 11:11:36;;;;;;;2.05;1.25;;;15.20;99.90;;;;;;6094729;29;20352;-68
2022/05/30 11:15:02;;;;;;;1.50;1.50;;;15.30;99.90;;;;;;6094336;29;20600;-68
2022/05/30 11:18:59;;;;;;;3.20;1.40;;;15.20;99.90;;;;;;6095735;29;20615;-68
2022/05/30 11:22:39;;;;;;;1.08;1.08;;;15.30;99.90;;;;;;6085462;29;20382;-70
2022/05/30 11:26:08;;;;;;;2.25;1.20;;;15.20;99.90;;;;;;6094539;29;20273;-72
2022/05/30 11:29:28;;;;;;;1.30;1.30;;;15.30;99.90;;;;;;6094065;29;20308;-68
2022/05/30 11:33:11;;;;;;;2.53;1.85;;;15.40;99.90;;;;;;6094905;29;20276;-69
2022/05/30 11:37:05;;;;;;;1.40;1.30;;;15.30;99.90;;;;;;6081435;29;20357;-68
2022/05/30 11:40:22;;;;;;;4.57;1.92;;;15.40;99.90;;;;;;6093487;29;20591;-67
2022/05/30 11:43:49;;;;;;;8.20;1.90;;;15.40;99.90;;;;;;6094874;29;20309;-68
2022/05/30 11:47:03;;;;;;;1.77;1.33;;;15.50;99.90;;;;;;6095243;29;20277;-68
2022/05/30 11:50:27;;;;;;;1.30;1.20;;;15.50;99.90;;;;;;6094972;29;20304;-68
2022/05/30 11:54:15;;;;;;;1.63;1.52;;;15.50;99.90;;;;;;6093388;29;20304;-67
2022/05/30 11:57:29;;;;;;;1.65;1.60;;;15.50;99.90;;;;;;6094842;29;20273;-68
2022/05/30 12:00:37;;;;;;;1.20;1.20;;;15.60;99.90;;;;;;6093365;29;20280;-68
2022/05/30 12:04:36;;;;;;;1.50;1.50;;;15.70;99.90;;;;;;6093512;29;20300;-68
2022/05/30 12:08:09;;;;;;;1.20;1.20;;;15.50;99.90;;;;;;6054798;29;20284;-68
2022/05/30 12:11:44;;;;;;;1.10;1.10;;;15.50;99.90;;;;;;6094796;29;20317;-68
2022/05/30 12:15:39;;;;;;;1.20;1.20;;;15.50;99.90;;;;;;6094199;29;20320;-67
2022/05/30 12:26:15;;;;;;;1.30;1.30;;;15.80;99.90;;;;;;6094578;29;20276;-69
2022/05/30 12:29:49;;;;;;;1.58;1.02;;;15.90;99.90;;;;;;6093845;29;20308;-69
2022/05/30 12:32:54;;;;;;;4.38;1.30;;;16.00;99.90;;;;;;6093459;29;20320;-71
2022/05/30 12:36:32;;;;;;;1.48;1.38;;;16.10;99.30;;;;;;6094383;29;20277;-70
2022/05/30 12:39:39;;;;;;;1.23;1.23;;;15.90;99.60;;;;;;6091394;29;20316;-69
2022/05/30 12:42:45;;;;;;;2.35;1.15;;;15.90;99.90;;;;;;6094062;29;20387;-68
2022/05/30 12:46:15;;;;;;;1.00;1.00;;;15.90;99.90;;;;;;6093891;29;20272;-68
2022/05/30 12:49:31;;;;;;;1.00;1.00;;;15.90;99.00;;;;;;6093684;29;20592;-69
2022/05/30 12:52:53;;;;;;;2.80;0.80;;;16.00;99.10;;;;;;6093786;29;20300;-68
2022/05/30 12:55:59;;;;;;;0.95;0.95;;;16.10;98.60;;;;;;6093815;29;20276;-69
2022/05/30 12:59:18;;;;;;;2.72;1.60;;;16.00;97.80;;;;;;6093612;29;20296;-68
2022/05/30 13:03:12;;;;;;;1.50;1.50;;;15.90;98.20;;;;;;6356412;27;20781;-69
2022/05/30 13:06:24;;;;;;;1.27;1.17;;;15.70;98.30;;;;;;6283698;28;20271;-67
2022/05/30 13:09:33;;;;;;;1.15;1.10;;;15.80;98.10;;;;;;6305781;28;20298;-70
2022/05/30 13:12:53;;;;;;;1.00;1.00;;;15.80;98.00;;;;;;6313359;28;20278;-69
2022/05/30 13:16:05;;;;;;;2.60;1.42;;;15.70;97.80;;;;;;6317585;28;20267;-68
2022/05/30 13:19:15;;;;;;;0.98;0.98;;;15.80;97.90;;;;;;6319556;28;20243;-66
2022/05/30 13:22:31;;;;;;;1.20;1.20;;;16.00;97.70;;;;;;6319233;28;20290;-70
2022/05/30 13:25:41;;;;;;;0.93;0.93;;;15.90;96.50;;;;;;6306234;28;20270;-68
2022/05/30 13:28:50;;;;;;;0.88;0.88;;;15.80;95.90;;;;;;6306668;28;20479;-69
2022/05/30 13:31:56;;;;;;;0.88;0.88;;;15.80;95.60;;;;;;6306750;28;20278;-68
2022/05/30 13:35:08;;;;;;;0.60;0.60;;;15.70;95.70;;;;;;6311967;28;20370;-67
2022/05/30 13:38:16;;;;;;;1.10;1.00;;;15.70;95.20;;;;;;6315767;28;20294;-68
2022/05/30 13:41:30;;;;;;;1.40;1.40;;;16.80;94.00;;;;;;6316248;28;20290;-68
2022/05/30 13:44:51;;;;;;;1.10;1.10;;;16.80;91.60;;;;;;6315316;28;20291;-69
2022/05/30 13:48:00;;;;;;;0.70;0.70;;;16.70;90.90;;;;;;6313264;28;20294;-69
2022/05/30 13:51:32;;;;;;;0.90;0.90;;;16.60;92.00;;;;;;6315717;28;20262;-68
2022/05/30 13:54:41;;;;;;;1.65;0.70;;;16.60;93.10;;;;;;6316453;28;20319;-69
2022/05/30 13:57:47;;;;;;;1.10;1.10;;;16.40;93.40;;;;;;6315138;28;20303;-68
2022/05/30 14:00:55;;;;;;;0.77;0.77;;;16.30;93.50;;;;;;6315355;28;20290;-68
2022/05/30 14:04:03;;;;;;;2.63;1.40;;;16.10;93.30;;;;;;6315365;28;20291;-71
2022/05/30 14:07:22;;;;;;;1.13;1.13;;;16.10;93.90;;;;;;6316717;28;20271;-70
2022/05/30 14:10:28;;;;;;;1.00;1.00;;;16.20;94.10;;;;;;6315106;28;20227;-68
2022/05/30 14:13:55;;;;;;;1.00;1.00;;;16.30;94.20;;;;;;6287468;28;20244;-68
2022/05/30 14:17:00;;;;;;;0.90;0.90;;;16.30;94.40;;;;;;6276136;28;20224;-68
2022/05/30 14:20:12;;;;;;;1.00;1.00;;;16.30;95.10;;;;;;6272655;28;20300;-68
2022/05/30 14:23:19;;;;;;;0.60;0.60;;;16.30;95.40;;;;;;6272607;28;20309;-67
2022/05/30 14:26:30;;;;;;;0.82;0.80;;;16.20;95.80;;;;;;6271996;28;20438;-71
2022/05/30 14:29:41;;;;;;;0.85;0.85;;;16.30;95.90;;;;;;6265804;28;20292;-69
2022/05/30 14:32:51;;;;;;;0.85;0.85;;;16.10;95.70;;;;;;6263910;28;20296;-68
2022/05/30 14:36:37;;;;;;;0.90;0.90;;;16.00;95.40;;;;;;6263070;28;20276;-70
2022/05/30 14:39:51;;;;;;;1.67;1.63;;;15.80;94.80;;;;;;6262908;28;20296;-70
2022/05/30 14:42:59;;;;;;;1.00;1.00;;;16.20;95.50;;;;;;6263074;28;20299;-70
2022/05/30 14:46:15;;;;;;;0.77;0.77;;;17.10;95.20;;;;;;6263625;28;20590;-68
2022/05/30 14:49:25;;;;;;;3.00;1.08;;;17.80;94.00;;;;;;6263001;28;20312;-70
2022/05/30 14:52:36;;;;;;;0.80;0.80;;;17.90;93.40;;;;;;6262366;28;20414;-69
2022/05/30 14:55:47;;;;;;;1.77;1.00;;;17.80;93.40;;;;;;6262770;28;20272;-68
2022/05/30 14:58:58;;;;;;;2.22;1.00;;;17.70;93.40;;;;;;6262305;28;20385;-69
2022/05/30 15:05:49;;;;;;;0.85;0.85;;;17.60;93.00;;;;;;6206260;28;20280;-70
2022/05/30 15:08:55;;;;;;;0.80;0.80;;;17.50;93.20;;;;;;6262437;28;20349;-69
2022/05/30 15:12:02;;;;;;;1.67;1.20;;;17.40;93.40;;;;;;6262191;28;20264;-69
2022/05/30 15:15:08;;;;;;;1.45;1.45;;;17.10;93.00;;;;;;6293867;28;20354;-69
2022/05/30 15:18:15;;;;;;;1.67;1.20;;;17.00;93.80;;;;;;6262118;28;20323;-68
2022/05/30 15:21:25;;;;;;;0.95;0.95;;;17.10;94.50;;;;;;6277297;28;20275;-69
2022/05/30 15:24:34;;;;;;;1.90;1.80;;;16.90;93.90;;;;;;6260710;28;20300;-70
2022/05/30 15:27:42;;;;;;;2.10;2.03;;;16.50;93.40;;;;;;6262416;28;20293;-70
2022/05/30 15:30:50;;;;;;;1.35;1.35;;;16.50;94.80;;;;;;6262181;28;20271;-70
2022/05/30 15:33:56;;;;;;;2.40;1.92;;;16.50;94.60;;;;;;6261589;28;20308;-70
2022/05/30 15:37:01;;;;;;;2.50;1.80;;;16.60;94.90;;;;;;6262080;28;20268;-69
2022/05/30 15:40:09;;;;;;;1.38;1.33;;;16.60;95.70;;;;;;6261764;28;20295;-70
2022/05/30 15:43:19;;;;;;;1.23;1.23;;;16.60;95.10;;;;;;6261955;28;20300;-69
2022/05/30 15:46:26;;;;;;;0.90;0.90;;;16.40;95.20;;;;;;6261919;28;20578;-69
2022/05/30 15:49:32;;;;;;;0.80;0.80;;;16.30;95.00;;;;;;6261206;28;20295;-70
2022/05/30 15:59:32;;;;;;;0.98;0.98;;;16.00;94.80;;;;;;6261498;28;20292;-69
2022/05/30 16:02:38;;;;;;;0.93;0.93;;;15.90;94.90;;;;;;6260661;28;20288;-68
2022/05/30 16:05:47;;;;;;;0.70;0.70;;;16.10;94.90;;;;;;6261658;28;20276;-70
2022/05/30 16:08:52;;;;;;;0.70;0.70;;;15.90;94.50;;;;;;6261669;28;20307;-69
2022/05/30 16:12:00;;;;;;;1.05;1.05;;;15.90;94.80;;;;;;6260863;28;20264;-69
2022/05/30 16:15:09;;;;;;;0.82;0.82;;;16.00;95.20;;;;;;6259342;28;20476;-70
2022/05/30 16:18:16;;;;;;;1.10;1.10;;;16.10;95.20;;;;;;6261694;28;20299;-71
2022/05/30 16:21:25;;;;;;;1.05;1.05;;;16.10;95.00;;;;;;6261482;28;20275;-69
2022/05/30 16:24:31;;;;;;;1.27;1.27;;;16.00;95.20;;;;;;6261048;28;20307;-69
2022/05/30 16:27:37;;;;;;;1.10;1.10;;;15.80;95.80;;;;;;6260482;28;20263;-70
2022/05/30 16:30:44;;;;;;;1.50;1.50;;;15.60;96.60;;;;;;6261406;28;20277;-70
2022/05/30 16:33:51;;;;;;;2.80;2.70;;;15.60;96.90;;;;;;6291615;28;20701;-70
2022/05/30 16:36:57;;;;;;;1.08;1.08;;;15.60;97.00;;;;;;6260882;28;20410;-69
2022/05/30 16:40:02;;;;;;;1.10;1.10;;;15.50;96.90;;;;;;6260302;28;20299;-70
2022/05/30 16:43:08;;;;;;;1.65;1.15;;;15.40;97.30;;;;;;6259771;28;20583;-69
2022/05/30 16:46:16;;;;;;;3.75;3.08;;;15.40;97.50;;;;;;6260958;28;20276;-69
2022/05/30 16:49:27;;;;;;;1.00;1.00;;;15.40;98.00;;;;;;6260251;28;20607;-69
2022/05/30 16:52:33;;;;;;;0.93;0.93;;;15.40;97.80;;;;;;6259568;28;20276;-69
2022/05/30 16:55:38;;;;;;;1.00;1.00;;;15.30;98.30;;;;;;6260240;28;20271;-69
2022/05/30 16:58:45;;;;;;;3.03;1.10;;;15.20;98.50;;;;;;6258395;28;20299;-68
2022/05/30 17:01:51;;;;;;;1.10;1.10;;;15.20;99.10;;;;;;6259933;28;20300;-68
2022/05/30 17:04:57;;;;;;;1.65;1.10;;;15.20;99.10;;;;;;6259572;28;20299;-67
2022/05/30 17:08:02;;;;;;;1.27;1.27;;;15.30;98.80;;;;;;6260150;28;20300;-67
2022/05/30 17:11:10;;;;;;;1.08;1.08;;;15.30;98.50;;;;;;6259944;28;20264;-67
2022/05/30 17:14:16;;;;;;;1.45;0.95;;;15.30;98.30;;;;;;6259582;28;20375;-69
2022/05/30 17:17:23;;;;;;;1.70;1.70;;;15.20;98.80;;;;;;6260376;28;20572;-69
2022/05/30 17:20:31;;;;;;;1.45;1.35;;;15.20;99.20;;;;;;6258960;28;20280;-69
2022/05/30 17:23:40;;;;;;;1.02;1.02;;;15.10;99.60;;;;;;6260140;28;20323;-69
2022/05/30 17:30:16;;;;;;;0.80;0.80;;;14.90;97.60;;;;;;6260113;28;20297;-68
2022/05/30 17:33:23;;;;;;;1.00;1.00;;;14.80;96.90;;;;;;6259819;28;20303;-69